sensor_id;sensor_type;location;lat;lon;timestamp;temperature;humidity
19254;DHT22;9761;50.926;5.330;2022-09-09T00:00:53;15.60;99.90
19254;DHT22;9761;50.926;5.330;2022-09-09T00:03:22;15.60;99.90
19254;DHT22;9761;50.926;5.330;2022-09-09T00:05:52;15.60;99.90
19254;DHT22;9761;50.926;5.330;2022-09-09T00:08:22;15.60;99.90
19254;DHT22;9761;50.926;5.330;2022-09-09T00:10:51;15.70;99.90
19254;DHT22;9761;50.926;5.330;2022-09-09T00:13:20;15.60;99.90
19254;DHT22;9761;50.926;5.330;2022-09-09T00:15:57;15.60;99.90
19254;DHT22;9761;50.926;5.330;2022-09-09T00:18:26;15.60;99.90
19254;DHT22;9761;50.926;5.330;2022-09-09T00:20:56;15.60;99.90
19254;DHT22;9761;50.926;5.330;2022-09-09T00:23:28;15.60;99.90
19254;DHT22;9761;50.926;5.330;2022-09-09T00:25:59;15.70;99.90
19254;DHT22;9761;50.926;5.330;2022-09-09T00:28:29;15.80;99.90
19254;DHT22;9761;50.926;5.330;2022-09-09T00:31:00;15.80;99.90
19254;DHT22;9761;50.926;5.330;2022-09-09T00:33:31;15.90;99.90
19254;DHT22;9761;50.926;5.330;2022-09-09T00:35:58;16.10;99.90
19254;DHT22;9761;50.926;5.330;2022-09-09T00:38:28;16.10;99.90
19254;DHT22;9761;50.926;5.330;2022-09-09T00:40:58;16.10;99.90
19254;DHT22;9761;50.926;5.330;2022-09-09T00:43:30;16.10;99.90
19254;DHT22;9761;50.926;5.330;2022-09-09T00:46:14;16.00;99.90
19254;DHT22;9761;50.926;5.330;2022-09-09T00:48:47;15.90;99.90
19254;DHT22;9761;50.926;5.330;2022-09-09T00:51:19;15.90;99.90
19254;DHT22;9761;50.926;5.330;2022-09-09T00:53:59;15.80;99.90
19254;DHT22;9761;50.926;5.330;2022-09-09T00:56:30;15.70;99.90
19254;DHT22;9761;50.926;5.330;2022-09-09T01:01:51;15.80;99.90
19254;DHT22;9761;50.926;5.330;2022-09-09T01:04:22;15.80;99.90
19254;DHT22;9761;50.926;5.330;2022-09-09T01:06:51;15.80;99.90
19254;DHT22;9761;50.926;5.330;2022-09-09T01:09:24;15.80;99.90
19254;DHT22;9761;50.926;5.330;2022-09-09T01:11:55;15.80;99.90
19254;DHT22;9761;50.926;5.330;2022-09-09T01:14:30;15.80;99.90
19254;DHT22;9761;50.926;5.330;2022-09-09T01:17:05;15.70;99.90
19254;DHT22;9761;50.926;5.330;2022-09-09T01:19:39;15.70;99.90
19254;DHT22;9761;50.926;5.330;2022-09-09T01:22:15;15.60;99.90
19254;DHT22;9761;50.926;5.330;2022-09-09T01:24:50;15.70;99.90
19254;DHT22;9761;50.926;5.330;2022-09-09T01:27:20;15.60;99.90
19254;DHT22;9761;50.926;5.330;2022-09-09T01:29:48;15.60;99.90
19254;DHT22;9761;50.926;5.330;2022-09-09T01:35:00;15.50;99.90
19254;DHT22;9761;50.926;5.330;2022-09-09T01:37:28;15.50;99.90
19254;DHT22;9761;50.926;5.330;2022-09-09T01:39:54;15.60;99.90
19254;DHT22;9761;50.926;5.330;2022-09-09T01:42:23;15.60;99.90
19254;DHT22;9761;50.926;5.330;2022-09-09T01:44:50;15.40;99.90
19254;DHT22;9761;50.926;5.330;2022-09-09T01:47:19;15.30;99.90
19254;DHT22;9761;50.926;5.330;2022-09-09T01:49:47;15.20;99.90
19254;DHT22;9761;50.926;5.330;2022-09-09T01:52:13;15.20;99.90
19254;DHT22;9761;50.926;5.330;2022-09-09T01:54:40;15.20;99.90
19254;DHT22;9761;50.926;5.330;2022-09-09T01:57:09;15.20;99.90
19254;DHT22;9761;50.926;5.330;2022-09-09T02:02:25;15.30;99.90
19254;DHT22;9761;50.926;5.330;2022-09-09T02:04:56;15.40;99.90
19254;DHT22;9761;50.926;5.330;2022-09-09T02:07:33;15.40;99.90
19254;DHT22;9761;50.926;5.330;2022-09-09T02:10:02;15.50;99.90
19254;DHT22;9761;50.926;5.330;2022-09-09T02:12:33;15.50;99.90
19254;DHT22;9761;50.926;5.330;2022-09-09T02:15:01;15.50;99.90
19254;DHT22;9761;50.926;5.330;2022-09-09T02:17:31;15.60;99.90
19254;DHT22;9761;50.926;5.330;2022-09-09T02:20:03;15.70;99.90
19254;DHT22;9761;50.926;5.330;2022-09-09T02:22:32;15.60;99.90
19254;DHT22;9761;50.926;5.330;2022-09-09T02:25:05;15.60;99.90
19254;DHT22;9761;50.926;5.330;2022-09-09T02:27:34;15.60;99.90
19254;DHT22;9761;50.926;5.330;2022-09-09T02:30:03;15.60;99.90
19254;DHT22;9761;50.926;5.330;2022-09-09T02:32:32;15.60;99.90
19254;DHT22;9761;50.926;5.330;2022-09-09T02:35:04;15.60;99.90
19254;DHT22;9761;50.926;5.330;2022-09-09T02:37:33;15.50;99.90
19254;DHT22;9761;50.926;5.330;2022-09-09T02:40:06;15.40;99.90
19254;DHT22;9761;50.926;5.330;2022-09-09T02:42:38;15.40;99.90
19254;DHT22;9761;50.926;5.330;2022-09-09T02:45:05;15.40;99.90
19254;DHT22;9761;50.926;5.330;2022-09-09T02:47:37;15.40;99.90
19254;DHT22;9761;50.926;5.330;2022-09-09T02:50:08;15.40;99.90
19254;DHT22;9761;50.926;5.330;2022-09-09T02:52:44;15.40;99.90
19254;DHT22;9761;50.926;5.330;2022-09-09T02:55:15;15.40;99.90
19254;DHT22;9761;50.926;5.330;2022-09-09T02:57:48;15.40;99.90
19254;DHT22;9761;50.926;5.330;2022-09-09T03:00:15;15.40;99.90
19254;DHT22;9761;50.926;5.330;2022-09-09T03:02:44;15.50;99.90
19254;DHT22;9761;50.926;5.330;2022-09-09T03:05:10;15.50;99.90
19254;DHT22;9761;50.926;5.330;2022-09-09T03:07:38;15.50;99.90
19254;DHT22;9761;50.926;5.330;2022-09-09T03:10:07;15.50;99.90
19254;DHT22;9761;50.926;5.330;2022-09-09T03:12:41;15.50;99.90
19254;DHT22;9761;50.926;5.330;2022-09-09T03:15:09;15.40;99.90
19254;DHT22;9761;50.926;5.330;2022-09-09T03:17:36;15.50;99.90
19254;DHT22;9761;50.926;5.330;2022-09-09T03:20:05;15.40;99.90
19254;DHT22;9761;50.926;5.330;2022-09-09T03:22:32;15.50;99.90
19254;DHT22;9761;50.926;5.330;2022-09-09T03:24:59;15.50;99.90
19254;DHT22;9761;50.926;5.330;2022-09-09T03:27:27;15.50;99.90
19254;DHT22;9761;50.926;5.330;2022-09-09T03:29:54;15.50;99.90
19254;DHT22;9761;50.926;5.330;2022-09-09T03:32:21;15.50;99.90
19254;DHT22;9761;50.926;5.330;2022-09-09T03:34:51;15.60;99.90
19254;DHT22;9761;50.926;5.330;2022-09-09T03:37:20;15.80;99.90
19254;DHT22;9761;50.926;5.330;2022-09-09T03:39:49;15.80;99.90
19254;DHT22;9761;50.926;5.330;2022-09-09T03:42:17;15.90;99.90
19254;DHT22;9761;50.926;5.330;2022-09-09T03:44:45;15.90;99.90
19254;DHT22;9761;50.926;5.330;2022-09-09T03:47:15;16.00;99.90
19254;DHT22;9761;50.926;5.330;2022-09-09T03:49:42;16.00;99.90
19254;DHT22;9761;50.926;5.330;2022-09-09T03:52:09;16.00;99.90
19254;DHT22;9761;50.926;5.330;2022-09-09T03:54:37;16.00;99.90
19254;DHT22;9761;50.926;5.330;2022-09-09T03:57:06;15.90;99.90
19254;DHT22;9761;50.926;5.330;2022-09-09T03:59:33;15.80;99.90
19254;DHT22;9761;50.926;5.330;2022-09-09T04:02:00;15.80;99.90
19254;DHT22;9761;50.926;5.330;2022-09-09T04:04:28;15.70;99.90
19254;DHT22;9761;50.926;5.330;2022-09-09T04:07:00;15.80;99.90
19254;DHT22;9761;50.926;5.330;2022-09-09T04:09:26;15.80;99.90
19254;DHT22;9761;50.926;5.330;2022-09-09T04:11:54;15.80;99.90
19254;DHT22;9761;50.926;5.330;2022-09-09T04:14:22;15.70;99.90
19254;DHT22;9761;50.926;5.330;2022-09-09T04:16:51;15.70;99.90
19254;DHT22;9761;50.926;5.330;2022-09-09T04:19:18;15.60;99.90
19254;DHT22;9761;50.926;5.330;2022-09-09T04:21:47;15.60;99.90
19254;DHT22;9761;50.926;5.330;2022-09-09T04:24:16;15.60;99.90
19254;DHT22;9761;50.926;5.330;2022-09-09T04:26:45;15.60;99.90
19254;DHT22;9761;50.926;5.330;2022-09-09T04:29:14;15.60;99.90
19254;DHT22;9761;50.926;5.330;2022-09-09T04:31:41;15.60;99.90
19254;DHT22;9761;50.926;5.330;2022-09-09T04:34:09;15.60;99.90
19254;DHT22;9761;50.926;5.330;2022-09-09T04:36:38;15.50;99.90
19254;DHT22;9761;50.926;5.330;2022-09-09T04:39:05;15.60;99.90
19254;DHT22;9761;50.926;5.330;2022-09-09T04:41:32;15.60;99.90
19254;DHT22;9761;50.926;5.330;2022-09-09T04:43:59;15.50;99.90
19254;DHT22;9761;50.926;5.330;2022-09-09T04:46:27;15.50;99.90
19254;DHT22;9761;50.926;5.330;2022-09-09T04:48:55;15.50;99.90
19254;DHT22;9761;50.926;5.330;2022-09-09T04:51:22;15.50;99.90
19254;DHT22;9761;50.926;5.330;2022-09-09T04:53:50;15.50;99.90
19254;DHT22;9761;50.926;5.330;2022-09-09T04:58:49;15.40;99.90
19254;DHT22;9761;50.926;5.330;2022-09-09T05:01:16;15.50;99.90
19254;DHT22;9761;50.926;5.330;2022-09-09T05:03:45;15.50;99.90
19254;DHT22;9761;50.926;5.330;2022-09-09T05:06:13;15.50;99.90
19254;DHT22;9761;50.926;5.330;2022-09-09T05:08:41;15.60;99.90
19254;DHT22;9761;50.926;5.330;2022-09-09T05:11:15;15.60;99.90
19254;DHT22;9761;50.926;5.330;2022-09-09T05:13:43;15.50;99.90
19254;DHT22;9761;50.926;5.330;2022-09-09T05:16:11;15.50;99.90
19254;DHT22;9761;50.926;5.330;2022-09-09T05:18:38;15.50;99.90
19254;DHT22;9761;50.926;5.330;2022-09-09T05:21:07;15.50;99.90
19254;DHT22;9761;50.926;5.330;2022-09-09T05:23:34;15.60;99.90
19254;DHT22;9761;50.926;5.330;2022-09-09T05:26:01;15.60;99.90
19254;DHT22;9761;50.926;5.330;2022-09-09T05:28:29;15.60;99.90
19254;DHT22;9761;50.926;5.330;2022-09-09T05:30:56;15.50;99.90
19254;DHT22;9761;50.926;5.330;2022-09-09T05:33:25;15.50;99.90
19254;DHT22;9761;50.926;5.330;2022-09-09T05:35:57;15.50;99.90
19254;DHT22;9761;50.926;5.330;2022-09-09T05:38:26;15.50;99.90
19254;DHT22;9761;50.926;5.330;2022-09-09T05:40:53;15.60;99.90
19254;DHT22;9761;50.926;5.330;2022-09-09T05:43:20;15.70;99.90
19254;DHT22;9761;50.926;5.330;2022-09-09T05:45:48;15.90;99.90
19254;DHT22;9761;50.926;5.330;2022-09-09T05:48:15;16.00;99.90
19254;DHT22;9761;50.926;5.330;2022-09-09T05:50:42;16.10;99.90
19254;DHT22;9761;50.926;5.330;2022-09-09T05:53:10;16.00;99.90
19254;DHT22;9761;50.926;5.330;2022-09-09T05:55:38;16.00;99.90
19254;DHT22;9761;50.926;5.330;2022-09-09T05:58:07;16.10;99.90
19254;DHT22;9761;50.926;5.330;2022-09-09T06:00:36;16.10;99.90
19254;DHT22;9761;50.926;5.330;2022-09-09T06:03:05;16.10;99.90
19254;DHT22;9761;50.926;5.330;2022-09-09T06:05:32;16.10;99.90
19254;DHT22;9761;50.926;5.330;2022-09-09T06:08:01;16.10;99.90
19254;DHT22;9761;50.926;5.330;2022-09-09T06:10:28;16.10;99.90
19254;DHT22;9761;50.926;5.330;2022-09-09T06:12:57;16.20;99.90
19254;DHT22;9761;50.926;5.330;2022-09-09T06:15:24;16.30;99.90
19254;DHT22;9761;50.926;5.330;2022-09-09T06:17:53;16.20;99.90
19254;DHT22;9761;50.926;5.330;2022-09-09T06:20:21;16.20;99.90
19254;DHT22;9761;50.926;5.330;2022-09-09T06:22:48;16.30;99.90
19254;DHT22;9761;50.926;5.330;2022-09-09T06:25:15;16.40;99.90
19254;DHT22;9761;50.926;5.330;2022-09-09T06:27:47;16.40;99.90
19254;DHT22;9761;50.926;5.330;2022-09-09T06:30:16;16.50;99.90
19254;DHT22;9761;50.926;5.330;2022-09-09T06:32:43;16.50;99.90
19254;DHT22;9761;50.926;5.330;2022-09-09T06:35:10;16.40;99.90
19254;DHT22;9761;50.926;5.330;2022-09-09T06:37:37;16.40;99.90
19254;DHT22;9761;50.926;5.330;2022-09-09T06:40:05;16.40;99.90
19254;DHT22;9761;50.926;5.330;2022-09-09T06:42:32;16.40;99.90
19254;DHT22;9761;50.926;5.330;2022-09-09T06:45:00;16.40;99.90
19254;DHT22;9761;50.926;5.330;2022-09-09T06:47:29;16.50;99.90
19254;DHT22;9761;50.926;5.330;2022-09-09T06:49:56;16.50;99.90
19254;DHT22;9761;50.926;5.330;2022-09-09T06:52:23;16.60;99.90
19254;DHT22;9761;50.926;5.330;2022-09-09T06:54:51;16.70;99.90
19254;DHT22;9761;50.926;5.330;2022-09-09T06:57:18;16.90;99.90
19254;DHT22;9761;50.926;5.330;2022-09-09T06:59:45;17.10;99.90
19254;DHT22;9761;50.926;5.330;2022-09-09T07:02:12;17.40;99.90
19254;DHT22;9761;50.926;5.330;2022-09-09T07:04:40;17.40;99.90
19254;DHT22;9761;50.926;5.330;2022-09-09T07:07:07;17.10;99.90
19254;DHT22;9761;50.926;5.330;2022-09-09T07:09:35;17.30;99.90
19254;DHT22;9761;50.926;5.330;2022-09-09T07:12:01;17.30;99.90
19254;DHT22;9761;50.926;5.330;2022-09-09T07:14:29;17.50;99.90
19254;DHT22;9761;50.926;5.330;2022-09-09T07:16:57;17.50;99.90
19254;DHT22;9761;50.926;5.330;2022-09-09T07:19:26;17.40;99.90
19254;DHT22;9761;50.926;5.330;2022-09-09T07:21:54;17.40;99.90
19254;DHT22;9761;50.926;5.330;2022-09-09T07:24:21;17.20;99.90
19254;DHT22;9761;50.926;5.330;2022-09-09T07:26:47;17.20;99.90
19254;DHT22;9761;50.926;5.330;2022-09-09T07:29:14;17.20;99.90
19254;DHT22;9761;50.926;5.330;2022-09-09T07:31:41;17.30;99.90
19254;DHT22;9761;50.926;5.330;2022-09-09T07:34:08;17.50;99.90
19254;DHT22;9761;50.926;5.330;2022-09-09T07:36:35;17.60;99.90
19254;DHT22;9761;50.926;5.330;2022-09-09T07:39:06;17.70;99.90
19254;DHT22;9761;50.926;5.330;2022-09-09T07:41:34;17.60;99.90
19254;DHT22;9761;50.926;5.330;2022-09-09T07:44:06;17.80;99.90
19254;DHT22;9761;50.926;5.330;2022-09-09T07:46:34;17.80;99.90
19254;DHT22;9761;50.926;5.330;2022-09-09T07:49:01;17.80;99.90
19254;DHT22;9761;50.926;5.330;2022-09-09T07:51:29;17.90;99.90
19254;DHT22;9761;50.926;5.330;2022-09-09T07:53:57;18.00;99.90
19254;DHT22;9761;50.926;5.330;2022-09-09T07:56:26;18.00;99.90
19254;DHT22;9761;50.926;5.330;2022-09-09T07:58:56;17.80;99.90
19254;DHT22;9761;50.926;5.330;2022-09-09T08:01:25;17.70;99.90
19254;DHT22;9761;50.926;5.330;2022-09-09T08:03:54;17.70;99.90
19254;DHT22;9761;50.926;5.330;2022-09-09T08:06:26;17.90;99.90
19254;DHT22;9761;50.926;5.330;2022-09-09T08:08:53;17.80;99.90
19254;DHT22;9761;50.926;5.330;2022-09-09T08:11:20;17.60;99.90
19254;DHT22;9761;50.926;5.330;2022-09-09T08:13:50;17.60;99.90
19254;DHT22;9761;50.926;5.330;2022-09-09T08:16:18;17.70;99.90
19254;DHT22;9761;50.926;5.330;2022-09-09T08:18:47;17.60;99.90
19254;DHT22;9761;50.926;5.330;2022-09-09T08:21:15;17.60;99.90
19254;DHT22;9761;50.926;5.330;2022-09-09T08:23:43;17.40;99.90
19254;DHT22;9761;50.926;5.330;2022-09-09T08:26:13;17.40;99.90
19254;DHT22;9761;50.926;5.330;2022-09-09T08:28:41;17.20;99.90
19254;DHT22;9761;50.926;5.330;2022-09-09T08:31:11;17.30;99.90
19254;DHT22;9761;50.926;5.330;2022-09-09T08:33:38;17.50;99.90
19254;DHT22;9761;50.926;5.330;2022-09-09T08:36:08;17.40;99.90
19254;DHT22;9761;50.926;5.330;2022-09-09T08:38:36;17.50;99.90
19254;DHT22;9761;50.926;5.330;2022-09-09T08:41:28;17.60;99.90
19254;DHT22;9761;50.926;5.330;2022-09-09T08:44:04;17.60;99.90
19254;DHT22;9761;50.926;5.330;2022-09-09T08:46:35;17.70;99.90
19254;DHT22;9761;50.926;5.330;2022-09-09T08:49:06;17.50;99.90
19254;DHT22;9761;50.926;5.330;2022-09-09T08:51:37;17.40;99.90
19254;DHT22;9761;50.926;5.330;2022-09-09T08:54:04;17.40;99.90
19254;DHT22;9761;50.926;5.330;2022-09-09T08:56:32;17.20;99.90
19254;DHT22;9761;50.926;5.330;2022-09-09T08:59:00;17.30;99.90
19254;DHT22;9761;50.926;5.330;2022-09-09T09:04:19;17.30;99.90
19254;DHT22;9761;50.926;5.330;2022-09-09T09:06:50;17.30;99.90
19254;DHT22;9761;50.926;5.330;2022-09-09T09:09:21;17.40;99.90
19254;DHT22;9761;50.926;5.330;2022-09-09T09:11:50;17.50;99.90
19254;DHT22;9761;50.926;5.330;2022-09-09T09:14:20;17.50;99.90
19254;DHT22;9761;50.926;5.330;2022-09-09T09:16:54;17.50;99.90
19254;DHT22;9761;50.926;5.330;2022-09-09T09:19:24;17.60;99.90
19254;DHT22;9761;50.926;5.330;2022-09-09T09:21:53;17.50;99.90
19254;DHT22;9761;50.926;5.330;2022-09-09T09:24:22;17.70;99.90
19254;DHT22;9761;50.926;5.330;2022-09-09T09:26:51;17.70;99.90
19254;DHT22;9761;50.926;5.330;2022-09-09T09:29:18;17.60;99.90
19254;DHT22;9761;50.926;5.330;2022-09-09T09:31:48;17.60;99.90
19254;DHT22;9761;50.926;5.330;2022-09-09T09:34:20;17.80;99.90
19254;DHT22;9761;50.926;5.330;2022-09-09T09:36:52;17.70;99.90
19254;DHT22;9761;50.926;5.330;2022-09-09T09:39:23;17.80;99.90
19254;DHT22;9761;50.926;5.330;2022-09-09T09:41:52;18.20;99.90
19254;DHT22;9761;50.926;5.330;2022-09-09T09:44:22;18.20;99.90
19254;DHT22;9761;50.926;5.330;2022-09-09T09:46:51;18.30;99.90
19254;DHT22;9761;50.926;5.330;2022-09-09T09:49:17;18.20;99.90
19254;DHT22;9761;50.926;5.330;2022-09-09T09:51:47;18.20;99.90
19254;DHT22;9761;50.926;5.330;2022-09-09T09:54:20;18.20;99.90
19254;DHT22;9761;50.926;5.330;2022-09-09T09:56:49;18.20;99.90
19254;DHT22;9761;50.926;5.330;2022-09-09T09:59:20;18.20;99.90
19254;DHT22;9761;50.926;5.330;2022-09-09T10:01:51;18.20;99.90
19254;DHT22;9761;50.926;5.330;2022-09-09T10:04:19;18.10;99.90
19254;DHT22;9761;50.926;5.330;2022-09-09T10:06:48;18.00;99.90
19254;DHT22;9761;50.926;5.330;2022-09-09T10:09:22;17.80;99.90
19254;DHT22;9761;50.926;5.330;2022-09-09T10:11:51;17.90;99.90
19254;DHT22;9761;50.926;5.330;2022-09-09T10:14:21;17.70;99.90
19254;DHT22;9761;50.926;5.330;2022-09-09T10:16:59;17.80;99.90
19254;DHT22;9761;50.926;5.330;2022-09-09T10:19:29;18.00;99.90
19254;DHT22;9761;50.926;5.330;2022-09-09T10:22:07;17.80;99.90
19254;DHT22;9761;50.926;5.330;2022-09-09T10:27:27;17.30;99.90
19254;DHT22;9761;50.926;5.330;2022-09-09T10:30:09;17.20;99.90
19254;DHT22;9761;50.926;5.330;2022-09-09T10:32:40;17.20;99.90
19254;DHT22;9761;50.926;5.330;2022-09-09T10:35:13;17.20;99.90
19254;DHT22;9761;50.926;5.330;2022-09-09T10:37:43;17.20;99.90
19254;DHT22;9761;50.926;5.330;2022-09-09T10:40:18;16.80;99.90
19254;DHT22;9761;50.926;5.330;2022-09-09T10:42:47;16.70;99.90
19254;DHT22;9761;50.926;5.330;2022-09-09T10:45:16;16.60;99.90
19254;DHT22;9761;50.926;5.330;2022-09-09T10:47:49;16.70;99.90
19254;DHT22;9761;50.926;5.330;2022-09-09T10:50:28;16.70;99.90
19254;DHT22;9761;50.926;5.330;2022-09-09T10:52:58;16.90;99.90
19254;DHT22;9761;50.926;5.330;2022-09-09T10:55:31;17.00;99.90
19254;DHT22;9761;50.926;5.330;2022-09-09T10:58:03;17.10;99.90
19254;DHT22;9761;50.926;5.330;2022-09-09T11:00:31;17.00;99.90
19254;DHT22;9761;50.926;5.330;2022-09-09T11:03:02;17.10;99.90
19254;DHT22;9761;50.926;5.330;2022-09-09T11:05:34;17.20;99.90
19254;DHT22;9761;50.926;5.330;2022-09-09T11:08:04;17.30;99.90
19254;DHT22;9761;50.926;5.330;2022-09-09T11:10:34;17.40;99.90
19254;DHT22;9761;50.926;5.330;2022-09-09T11:13:08;17.60;99.90
19254;DHT22;9761;50.926;5.330;2022-09-09T11:15:39;17.70;99.90
19254;DHT22;9761;50.926;5.330;2022-09-09T11:18:08;17.70;99.90
19254;DHT22;9761;50.926;5.330;2022-09-09T11:20:38;17.70;99.90
19254;DHT22;9761;50.926;5.330;2022-09-09T11:23:09;17.70;99.90
19254;DHT22;9761;50.926;5.330;2022-09-09T11:25:38;17.90;99.90
19254;DHT22;9761;50.926;5.330;2022-09-09T11:28:12;18.20;99.90
19254;DHT22;9761;50.926;5.330;2022-09-09T11:30:50;18.30;99.90
19254;DHT22;9761;50.926;5.330;2022-09-09T11:36:13;18.60;99.90
19254;DHT22;9761;50.926;5.330;2022-09-09T11:38:45;18.60;99.90
19254;DHT22;9761;50.926;5.330;2022-09-09T11:41:12;18.80;99.90
19254;DHT22;9761;50.926;5.330;2022-09-09T11:43:44;18.90;99.90
19254;DHT22;9761;50.926;5.330;2022-09-09T11:46:12;18.60;99.90
19254;DHT22;9761;50.926;5.330;2022-09-09T11:48:41;18.60;99.90
19254;DHT22;9761;50.926;5.330;2022-09-09T11:51:10;18.90;99.90
19254;DHT22;9761;50.926;5.330;2022-09-09T11:53:47;18.50;99.90
19254;DHT22;9761;50.926;5.330;2022-09-09T11:56:22;18.60;99.90
19254;DHT22;9761;50.926;5.330;2022-09-09T11:58:55;18.30;99.90
19254;DHT22;9761;50.926;5.330;2022-09-09T12:01:36;18.30;99.90
19254;DHT22;9761;50.926;5.330;2022-09-09T12:04:12;18.50;99.90
19254;DHT22;9761;50.926;5.330;2022-09-09T12:06:44;18.20;99.90
19254;DHT22;9761;50.926;5.330;2022-09-09T12:09:17;18.20;99.90
19254;DHT22;9761;50.926;5.330;2022-09-09T12:11:45;18.00;99.90
19254;DHT22;9761;50.926;5.330;2022-09-09T12:14:20;17.80;99.90
19254;DHT22;9761;50.926;5.330;2022-09-09T12:16:49;17.80;99.90
19254;DHT22;9761;50.926;5.330;2022-09-09T12:19:18;17.60;99.90
19254;DHT22;9761;50.926;5.330;2022-09-09T12:21:47;17.70;99.90
19254;DHT22;9761;50.926;5.330;2022-09-09T12:24:18;17.70;99.90
19254;DHT22;9761;50.926;5.330;2022-09-09T12:26:51;17.60;99.90
19254;DHT22;9761;50.926;5.330;2022-09-09T12:29:24;17.80;99.90
19254;DHT22;9761;50.926;5.330;2022-09-09T12:31:55;17.40;99.90
19254;DHT22;9761;50.926;5.330;2022-09-09T12:34:28;17.70;99.90
19254;DHT22;9761;50.926;5.330;2022-09-09T12:36:58;17.90;99.90
19254;DHT22;9761;50.926;5.330;2022-09-09T12:39:29;18.40;99.90
19254;DHT22;9761;50.926;5.330;2022-09-09T12:41:56;18.90;99.90
19254;DHT22;9761;50.926;5.330;2022-09-09T12:44:24;18.90;99.90
19254;DHT22;9761;50.926;5.330;2022-09-09T12:46:53;19.00;99.90
19254;DHT22;9761;50.926;5.330;2022-09-09T12:49:26;18.80;99.90
19254;DHT22;9761;50.926;5.330;2022-09-09T12:51:54;19.10;99.90
19254;DHT22;9761;50.926;5.330;2022-09-09T12:54:22;19.30;99.90
19254;DHT22;9761;50.926;5.330;2022-09-09T12:56:49;19.40;99.90
19254;DHT22;9761;50.926;5.330;2022-09-09T12:59:21;19.50;99.90
19254;DHT22;9761;50.926;5.330;2022-09-09T13:01:56;18.90;99.90
19254;DHT22;9761;50.926;5.330;2022-09-09T13:04:23;19.20;99.90
19254;DHT22;9761;50.926;5.330;2022-09-09T13:06:51;19.40;99.90
19254;DHT22;9761;50.926;5.330;2022-09-09T13:09:18;19.40;99.90
19254;DHT22;9761;50.926;5.330;2022-09-09T13:11:46;19.60;99.90
19254;DHT22;9761;50.926;5.330;2022-09-09T13:14:15;19.60;99.90
19254;DHT22;9761;50.926;5.330;2022-09-09T13:16:55;19.50;99.90
19254;DHT22;9761;50.926;5.330;2022-09-09T13:22:40;19.90;99.90
19254;DHT22;9761;50.926;5.330;2022-09-09T13:25:17;19.90;99.90
19254;DHT22;9761;50.926;5.330;2022-09-09T13:27:51;20.00;99.90
19254;DHT22;9761;50.926;5.330;2022-09-09T13:30:20;20.00;99.90
19254;DHT22;9761;50.926;5.330;2022-09-09T13:32:58;20.00;99.90
19254;DHT22;9761;50.926;5.330;2022-09-09T13:35:26;20.00;99.90
19254;DHT22;9761;50.926;5.330;2022-09-09T13:37:53;19.50;99.90
19254;DHT22;9761;50.926;5.330;2022-09-09T13:40:21;19.30;99.90
19254;DHT22;9761;50.926;5.330;2022-09-09T13:42:50;19.30;99.90
19254;DHT22;9761;50.926;5.330;2022-09-09T13:45:19;19.40;99.90
19254;DHT22;9761;50.926;5.330;2022-09-09T13:47:54;19.70;99.90
19254;DHT22;9761;50.926;5.330;2022-09-09T13:50:25;19.80;99.90
19254;DHT22;9761;50.926;5.330;2022-09-09T13:52:53;19.80;99.90
19254;DHT22;9761;50.926;5.330;2022-09-09T13:55:23;19.90;99.90
19254;DHT22;9761;50.926;5.330;2022-09-09T13:57:51;20.40;99.90
19254;DHT22;9761;50.926;5.330;2022-09-09T14:00:21;20.70;99.90
19254;DHT22;9761;50.926;5.330;2022-09-09T14:02:49;20.10;99.90
19254;DHT22;9761;50.926;5.330;2022-09-09T14:05:17;20.00;99.90
19254;DHT22;9761;50.926;5.330;2022-09-09T14:07:45;19.80;99.90
19254;DHT22;9761;50.926;5.330;2022-09-09T14:10:12;19.90;99.90
19254;DHT22;9761;50.926;5.330;2022-09-09T14:12:39;19.90;99.90
19254;DHT22;9761;50.926;5.330;2022-09-09T14:15:09;20.00;99.90
19254;DHT22;9761;50.926;5.330;2022-09-09T14:17:40;20.60;99.90
19254;DHT22;9761;50.926;5.330;2022-09-09T14:20:07;20.30;99.90
19254;DHT22;9761;50.926;5.330;2022-09-09T14:25:45;20.20;99.90
19254;DHT22;9761;50.926;5.330;2022-09-09T14:28:13;20.30;99.90
19254;DHT22;9761;50.926;5.330;2022-09-09T14:30:40;20.30;99.90
19254;DHT22;9761;50.926;5.330;2022-09-09T14:33:09;20.10;99.90
19254;DHT22;9761;50.926;5.330;2022-09-09T14:35:36;20.00;99.90
19254;DHT22;9761;50.926;5.330;2022-09-09T14:38:05;20.30;99.90
19254;DHT22;9761;50.926;5.330;2022-09-09T14:40:33;20.20;99.90
19254;DHT22;9761;50.926;5.330;2022-09-09T14:43:00;20.50;99.90
19254;DHT22;9761;50.926;5.330;2022-09-09T14:45:28;20.90;99.90
19254;DHT22;9761;50.926;5.330;2022-09-09T14:47:55;20.90;99.90
19254;DHT22;9761;50.926;5.330;2022-09-09T14:50:22;20.60;99.90
19254;DHT22;9761;50.926;5.330;2022-09-09T14:52:49;20.50;99.90
19254;DHT22;9761;50.926;5.330;2022-09-09T14:55:18;20.50;99.90
19254;DHT22;9761;50.926;5.330;2022-09-09T14:57:45;20.50;99.90
19254;DHT22;9761;50.926;5.330;2022-09-09T15:00:12;20.80;99.90
19254;DHT22;9761;50.926;5.330;2022-09-09T15:02:41;20.40;99.90
19254;DHT22;9761;50.926;5.330;2022-09-09T15:05:08;20.40;99.90
19254;DHT22;9761;50.926;5.330;2022-09-09T15:07:38;20.60;99.90
19254;DHT22;9761;50.926;5.330;2022-09-09T15:10:05;20.40;99.90
19254;DHT22;9761;50.926;5.330;2022-09-09T15:12:33;20.40;99.90
19254;DHT22;9761;50.926;5.330;2022-09-09T15:15:01;20.30;99.90
19254;DHT22;9761;50.926;5.330;2022-09-09T15:17:27;20.50;99.90
19254;DHT22;9761;50.926;5.330;2022-09-09T15:19:55;20.50;99.90
19254;DHT22;9761;50.926;5.330;2022-09-09T15:22:22;20.40;99.90
19254;DHT22;9761;50.926;5.330;2022-09-09T15:24:55;20.50;99.90
19254;DHT22;9761;50.926;5.330;2022-09-09T15:27:23;20.00;99.90
19254;DHT22;9761;50.926;5.330;2022-09-09T15:29:51;20.00;99.90
19254;DHT22;9761;50.926;5.330;2022-09-09T15:32:19;20.30;99.90
19254;DHT22;9761;50.926;5.330;2022-09-09T15:34:46;20.70;99.90
19254;DHT22;9761;50.926;5.330;2022-09-09T15:37:18;20.50;99.90
19254;DHT22;9761;50.926;5.330;2022-09-09T15:39:50;20.40;99.90
19254;DHT22;9761;50.926;5.330;2022-09-09T15:42:20;20.30;99.90
19254;DHT22;9761;50.926;5.330;2022-09-09T15:44:47;20.10;99.90
19254;DHT22;9761;50.926;5.330;2022-09-09T15:47:15;20.10;99.90
19254;DHT22;9761;50.926;5.330;2022-09-09T15:49:42;20.40;99.90
19254;DHT22;9761;50.926;5.330;2022-09-09T15:52:09;20.60;99.90
19254;DHT22;9761;50.926;5.330;2022-09-09T15:54:37;21.00;99.90
19254;DHT22;9761;50.926;5.330;2022-09-09T15:57:05;21.90;99.90
19254;DHT22;9761;50.926;5.330;2022-09-09T15:59:33;21.80;99.90
19254;DHT22;9761;50.926;5.330;2022-09-09T16:02:00;21.90;99.90
19254;DHT22;9761;50.926;5.330;2022-09-09T16:04:29;22.40;99.90
19254;DHT22;9761;50.926;5.330;2022-09-09T16:06:57;22.10;99.90
19254;DHT22;9761;50.926;5.330;2022-09-09T16:09:27;22.00;99.90
19254;DHT22;9761;50.926;5.330;2022-09-09T16:11:55;21.50;99.90
19254;DHT22;9761;50.926;5.330;2022-09-09T16:14:23;21.00;99.90
19254;DHT22;9761;50.926;5.330;2022-09-09T16:16:51;20.60;99.90
19254;DHT22;9761;50.926;5.330;2022-09-09T16:19:17;20.40;99.90
19254;DHT22;9761;50.926;5.330;2022-09-09T16:21:47;20.30;99.90
19254;DHT22;9761;50.926;5.330;2022-09-09T16:24:19;20.20;99.90